createdAt,value
2019-02-21T00:00:38.296Z,14.00
2019-02-21T00:01:38.382Z,15.30
2019-02-21T00:02:38.475Z,14.60
2019-02-21T00:03:38.549Z,14.70
2019-02-21T00:04:38.632Z,14.20
2019-02-21T00:05:38.728Z,14.80
2019-02-21T00:06:38.811Z,14.50
2019-02-21T00:07:38.897Z,14.30
2019-02-21T00:08:38.986Z,14.90
2019-02-21T00:09:39.075Z,14.70
2019-02-21T00:10:39.161Z,14.10
2019-02-21T00:11:39.244Z,14.40
2019-02-21T00:12:39.336Z,15.10
2019-02-21T00:13:39.424Z,14.30
2019-02-21T00:14:39.511Z,14.20
2019-02-21T00:15:39.601Z,14.40
2019-02-21T00:16:39.686Z,13.90
2019-02-21T00:17:39.774Z,14.10
2019-02-21T00:18:39.864Z,13.20
2019-02-21T00:19:39.953Z,14.60
2019-02-21T00:20:40.075Z,14.30
2019-02-21T00:21:40.164Z,14.70
2019-02-21T00:22:40.253Z,14.60
2019-02-21T00:23:40.386Z,14.20
2019-02-21T00:24:40.435Z,14.80
2019-02-21T00:25:40.522Z,14.00
2019-02-21T00:26:40.608Z,14.40
2019-02-21T00:27:40.696Z,14.10
2019-02-21T00:28:40.785Z,14.10
2019-02-21T00:29:40.869Z,13.80
2019-02-21T00:30:40.957Z,13.50
2019-02-21T00:31:41.044Z,14.10
2019-02-21T00:32:41.133Z,14.60
2019-02-21T00:33:41.218Z,13.80
2019-02-21T00:34:41.302Z,14.40
2019-02-21T00:35:41.388Z,14.40
2019-02-21T00:36:41.477Z,14.10
2019-02-21T00:37:41.566Z,14.10
2019-02-21T00:38:41.655Z,14.70
2019-02-21T00:39:41.742Z,13.80
2019-02-21T00:40:41.820Z,14.00
2019-02-21T00:41:41.906Z,14.20
2019-02-21T00:42:41.993Z,13.90
2019-02-21T00:43:42.081Z,14.40
2019-02-21T00:44:42.169Z,14.30
2019-02-21T00:45:42.258Z,13.90
2019-02-21T00:46:42.345Z,14.80
2019-02-21T00:47:42.434Z,13.70
2019-02-21T00:48:42.519Z,14.70
2019-02-21T00:49:42.608Z,15.30
2019-02-21T00:50:42.694Z,14.30
2019-02-21T00:51:42.782Z,14.70
2019-02-21T00:52:42.867Z,13.90
2019-02-21T00:53:42.959Z,14.10
2019-02-21T00:54:43.040Z,13.40
2019-02-21T00:55:43.134Z,14.20
2019-02-21T00:56:43.221Z,14.60
2019-02-21T00:57:43.308Z,13.60
2019-02-21T00:58:43.416Z,14.60
2019-02-21T00:59:43.501Z,14.30
2019-02-21T01:00:46.492Z,14.70
2019-02-21T01:01:43.679Z,14.20
2019-02-21T01:02:43.771Z,13.80
2019-02-21T01:03:43.861Z,14.40
2019-02-21T01:04:43.950Z,14.40
2019-02-21T01:05:44.033Z,14.80
2019-02-21T01:06:44.123Z,14.20
2019-02-21T01:07:44.214Z,14.20
2019-02-21T01:08:44.301Z,14.90
2019-02-21T01:09:44.388Z,14.20
2019-02-21T01:10:44.480Z,14.20
2019-02-21T01:11:44.557Z,14.90
2019-02-21T01:12:44.643Z,15.10
2019-02-21T01:13:44.727Z,14.80
2019-02-21T01:14:44.817Z,15.30
2019-02-21T01:15:44.903Z,15.10
2019-02-21T01:16:44.992Z,14.80
2019-02-21T01:17:45.073Z,14.90
2019-02-21T01:18:45.162Z,14.60
2019-02-21T01:19:45.247Z,14.70
2019-02-21T01:20:45.334Z,14.20
2019-02-21T01:21:45.422Z,14.40
2019-02-21T01:22:45.508Z,14.40
2019-02-21T01:23:45.599Z,14.60
2019-02-21T01:24:45.691Z,15.10
2019-02-21T01:25:45.788Z,14.30
2019-02-21T01:26:45.862Z,13.80
2019-02-21T01:27:46.023Z,13.40
2019-02-21T01:28:46.038Z,14.00
2019-02-21T01:29:46.122Z,14.80
2019-02-21T01:30:56.403Z,15.30
2019-02-21T01:31:46.304Z,14.60
2019-02-21T01:32:46.386Z,13.60
2019-02-21T01:33:46.478Z,14.80
2019-02-21T01:34:46.565Z,13.90
2019-02-21T01:35:46.704Z,14.40
2019-02-21T01:36:46.758Z,13.70
2019-02-21T01:37:46.845Z,14.60
2019-02-21T01:38:46.937Z,14.50
2019-02-21T01:39:47.027Z,14.90
2019-02-21T01:40:47.113Z,14.50
2019-02-21T01:41:47.200Z,13.80
2019-02-21T01:42:47.289Z,15.40
2019-02-21T01:43:47.372Z,14.70
2019-02-21T01:44:47.462Z,14.50
2019-02-21T01:45:47.550Z,14.20
2019-02-21T01:46:47.640Z,15.30
2019-02-21T01:47:47.728Z,14.50
2019-02-21T01:48:47.814Z,14.30
2019-02-21T01:49:47.902Z,13.50
2019-02-21T01:50:47.992Z,14.30
2019-02-21T01:51:48.077Z,14.00
2019-02-21T01:52:48.165Z,14.40
2019-02-21T01:53:48.252Z,14.60
2019-02-21T01:54:48.368Z,13.90
2019-02-21T01:55:48.424Z,15.00
2019-02-21T01:56:48.512Z,13.20
2019-02-21T01:57:48.614Z,13.90
2019-02-21T01:58:48.686Z,14.00
2019-02-21T01:59:48.773Z,13.20
2019-02-21T02:00:48.849Z,13.30
2019-02-21T02:01:48.943Z,13.20
2019-02-21T02:02:49.023Z,13.70
2019-02-21T02:03:49.106Z,13.70
2019-02-21T02:04:49.199Z,14.10
2019-02-21T02:05:49.288Z,15.00
2019-02-21T02:06:49.387Z,13.90
2019-02-21T02:07:49.444Z,14.60
2019-02-21T02:08:49.534Z,14.00
2019-02-21T02:09:49.617Z,14.00
2019-02-21T02:10:49.705Z,14.10
2019-02-21T02:11:49.797Z,13.90
2019-02-21T02:12:49.883Z,14.50
2019-02-21T02:13:49.968Z,14.90
2019-02-21T02:14:50.056Z,13.50
2019-02-21T02:15:50.140Z,15.20
2019-02-21T02:16:50.232Z,14.20
2019-02-21T02:17:50.322Z,14.10
2019-02-21T02:18:50.408Z,14.20
2019-02-21T02:19:50.504Z,13.90
2019-02-21T02:20:50.582Z,13.20
2019-02-21T02:21:50.671Z,13.90
2019-02-21T02:22:50.758Z,13.30
2019-02-21T02:23:50.842Z,13.40
2019-02-21T02:24:50.930Z,12.80
2019-02-21T02:25:51.018Z,13.20
2019-02-21T02:26:51.109Z,14.40
2019-02-21T02:27:51.195Z,13.50
2019-02-21T02:28:51.282Z,13.60
2019-02-21T02:29:51.371Z,13.00
2019-02-21T02:30:51.470Z,13.70
2019-02-21T02:31:51.558Z,13.70
2019-02-21T02:32:51.644Z,13.10
2019-02-21T02:33:51.745Z,13.00
2019-02-21T02:34:51.817Z,14.30
2019-02-21T02:35:51.906Z,12.90
2019-02-21T02:36:51.992Z,13.40
2019-02-21T02:37:52.073Z,13.40
2019-02-21T02:38:52.155Z,12.50
2019-02-21T02:39:52.243Z,13.70
2019-02-21T02:40:52.329Z,13.00
2019-02-21T02:41:52.417Z,13.20
2019-02-21T02:42:52.503Z,12.90
2019-02-21T02:43:52.596Z,13.10
2019-02-21T02:44:52.682Z,13.10
2019-02-21T02:45:52.769Z,13.30
2019-02-21T02:46:52.854Z,13.00
2019-02-21T02:47:52.939Z,12.80
2019-02-21T02:48:53.026Z,13.20
2019-02-21T02:49:53.113Z,12.60
2019-02-21T02:50:53.203Z,13.00
2019-02-21T02:51:53.288Z,12.60
2019-02-21T02:52:53.377Z,12.30
2019-02-21T02:53:53.466Z,12.80
2019-02-21T02:54:53.552Z,13.30
2019-02-21T02:55:53.639Z,12.80
2019-02-21T02:56:53.722Z,13.90
2019-02-21T02:57:53.810Z,13.40
2019-02-21T02:58:53.900Z,13.10
2019-02-21T02:59:53.987Z,12.90
2019-02-21T03:00:54.076Z,12.90
2019-02-21T03:01:54.153Z,12.50
2019-02-21T03:02:54.250Z,13.50
2019-02-21T03:03:54.327Z,13.60
2019-02-21T03:04:54.405Z,12.60
2019-02-21T03:05:54.497Z,12.50
2019-02-21T03:06:54.587Z,12.80
2019-02-21T03:07:54.667Z,12.90
2019-02-21T03:08:54.749Z,13.00
2019-02-21T03:09:54.838Z,12.30
2019-02-21T03:10:54.933Z,12.40
2019-02-21T03:11:55.018Z,13.10
2019-02-21T03:12:55.104Z,12.90
2019-02-21T03:13:55.189Z,12.70
2019-02-21T03:14:55.277Z,13.00
2019-02-21T03:15:55.367Z,12.60
2019-02-21T03:16:55.453Z,13.00
2019-02-21T03:17:55.538Z,12.40
2019-02-21T03:18:55.630Z,12.60
2019-02-21T03:19:55.702Z,12.80
2019-02-21T03:20:55.802Z,12.20
2019-02-21T03:21:55.916Z,12.70
2019-02-21T03:22:56.001Z,13.30
2019-02-21T03:23:56.100Z,12.70
2019-02-21T03:24:56.177Z,13.20
2019-02-21T03:25:56.272Z,12.90
2019-02-21T03:26:56.366Z,12.70
2019-02-21T03:27:56.446Z,13.00
2019-02-21T03:28:56.599Z,12.90
2019-02-21T03:29:56.618Z,12.90
2019-02-21T03:30:56.710Z,12.10
2019-02-21T03:31:56.808Z,12.30
2019-02-21T03:32:56.888Z,13.20
2019-02-21T03:33:56.972Z,13.10
2019-02-21T03:34:57.060Z,12.90
2019-02-21T03:35:57.146Z,12.80
2019-02-21T03:36:57.236Z,13.10
2019-02-21T03:37:57.326Z,13.10
2019-02-21T03:38:57.414Z,12.40
2019-02-21T03:39:57.500Z,12.60
2019-02-21T03:40:57.584Z,12.50
2019-02-21T03:41:57.676Z,12.60
2019-02-21T03:42:57.758Z,12.90
2019-02-21T03:43:57.849Z,12.50
2019-02-21T03:44:57.935Z,13.10
2019-02-21T03:45:58.019Z,12.40
2019-02-21T03:46:58.108Z,13.30
2019-02-21T03:47:58.200Z,12.50
2019-02-21T03:48:58.289Z,13.00
2019-02-21T03:49:58.384Z,12.50
2019-02-21T03:50:58.453Z,13.50
2019-02-21T03:51:58.638Z,13.00
2019-02-21T03:52:58.638Z,12.20
2019-02-21T03:53:58.727Z,12.60
2019-02-21T03:54:58.817Z,12.80
2019-02-21T03:55:58.904Z,12.00
2019-02-21T03:56:58.991Z,12.90
2019-02-21T03:57:59.078Z,12.30
2019-02-21T03:58:59.163Z,12.70
2019-02-21T03:59:59.252Z,13.10
2019-02-21T04:00:59.335Z,13.30
2019-02-21T04:02:05.407Z,12.50
2019-02-21T04:02:59.531Z,12.40
2019-02-21T04:03:59.619Z,12.40
2019-02-21T04:04:59.708Z,12.60
2019-02-21T04:05:59.800Z,13.00
2019-02-21T04:06:59.884Z,13.20
2019-02-21T04:07:59.970Z,12.70
2019-02-21T04:09:00.057Z,12.70
2019-02-21T04:10:00.462Z,12.60
2019-02-21T04:11:00.234Z,12.90
2019-02-21T04:12:00.323Z,12.30
2019-02-21T04:13:00.412Z,13.20
2019-02-21T04:14:00.510Z,12.60
2019-02-21T04:15:00.600Z,12.90
2019-02-21T04:16:00.676Z,13.90
2019-02-21T04:17:00.761Z,13.30
2019-02-21T04:18:00.859Z,12.40
2019-02-21T04:19:00.937Z,12.50
2019-02-21T04:20:01.160Z,13.00
2019-02-21T04:21:01.113Z,13.10
2019-02-21T04:22:01.196Z,12.40
2019-02-21T04:23:01.290Z,12.80
2019-02-21T04:24:01.379Z,12.30
2019-02-21T04:25:01.465Z,12.60
2019-02-21T04:26:01.552Z,13.20
2019-02-21T04:27:01.639Z,12.60
2019-02-21T04:28:01.730Z,12.80
2019-02-21T04:29:01.818Z,12.40
2019-02-21T04:30:01.909Z,12.90
2019-02-21T04:31:01.992Z,12.80
2019-02-21T04:32:02.079Z,12.80
2019-02-21T04:33:02.167Z,13.00
2019-02-21T04:34:02.257Z,12.40
2019-02-21T04:35:02.342Z,13.10
2019-02-21T04:36:02.432Z,13.20
2019-02-21T04:37:02.517Z,13.00
2019-02-21T04:38:02.603Z,12.30
2019-02-21T04:39:02.691Z,12.20
2019-02-21T04:40:02.787Z,12.70
2019-02-21T04:41:02.873Z,12.70
2019-02-21T04:42:02.967Z,13.40
2019-02-21T04:43:03.048Z,12.90
2019-02-21T04:44:04.002Z,12.30
2019-02-21T04:45:03.232Z,12.00
2019-02-21T04:46:03.311Z,12.60
2019-02-21T04:47:03.398Z,12.80
2019-02-21T04:48:03.485Z,11.80
2019-02-21T04:49:03.601Z,12.50
2019-02-21T04:50:03.658Z,12.90
2019-02-21T04:51:03.745Z,12.50
2019-02-21T04:52:03.834Z,12.00
2019-02-21T04:53:03.920Z,13.00
2019-02-21T04:54:04.082Z,12.70
2019-02-21T04:55:04.098Z,12.90
2019-02-21T04:56:04.186Z,13.20
2019-02-21T04:57:04.272Z,12.60
2019-02-21T04:58:04.359Z,12.10
2019-02-21T04:59:06.632Z,12.60
2019-02-21T05:00:04.528Z,12.40
2019-02-21T05:01:04.616Z,12.60
2019-02-21T05:02:04.708Z,12.10
2019-02-21T05:03:04.795Z,12.90
2019-02-21T05:04:05.021Z,13.20
2019-02-21T05:05:04.967Z,12.60
2019-02-21T05:06:05.054Z,12.00
2019-02-21T05:07:05.144Z,12.40
2019-02-21T05:08:05.233Z,12.80
2019-02-21T05:09:07.402Z,12.70
2019-02-21T05:10:05.408Z,13.20
2019-02-21T05:11:05.505Z,12.90
2019-02-21T05:12:05.591Z,12.90
2019-02-21T05:13:05.673Z,12.90
2019-02-21T05:14:05.761Z,13.50
2019-02-21T05:15:05.865Z,13.70
2019-02-21T05:16:05.937Z,14.10
2019-02-21T05:17:06.031Z,13.60
2019-02-21T05:18:06.112Z,14.80
2019-02-21T05:19:06.199Z,14.20
2019-02-21T05:20:06.293Z,14.20
2019-02-21T05:21:06.375Z,14.70
2019-02-21T05:22:06.463Z,14.50
2019-02-21T05:23:06.567Z,13.90
2019-02-21T05:24:06.682Z,14.30
2019-02-21T05:25:06.744Z,14.40
2019-02-21T05:26:06.831Z,14.70
2019-02-21T05:27:06.919Z,13.70
2019-02-21T05:28:07.007Z,13.80
2019-02-21T05:29:07.100Z,13.90
2019-02-21T05:30:07.185Z,14.70
2019-02-21T05:31:07.263Z,14.40
2019-02-21T05:32:07.367Z,13.50
2019-02-21T05:33:07.459Z,13.90
2019-02-21T05:34:07.548Z,13.00
2019-02-21T05:35:07.631Z,13.30
2019-02-21T05:36:07.715Z,15.40
2019-02-21T05:37:07.800Z,14.10
2019-02-21T05:38:07.960Z,13.50
2019-02-21T05:39:07.976Z,13.20
2019-02-21T05:40:08.064Z,13.00
2019-02-21T05:41:08.156Z,13.00
2019-02-21T05:42:08.229Z,15.40
2019-02-21T05:43:08.310Z,16.20
2019-02-21T05:44:08.399Z,16.90
2019-02-21T05:45:10.864Z,15.00
2019-02-21T05:46:08.571Z,13.50
2019-02-21T05:47:08.662Z,12.90
2019-02-21T05:48:08.745Z,13.50
2019-02-21T05:49:11.410Z,13.60
2019-02-21T05:50:08.924Z,13.40
2019-02-21T05:51:09.009Z,14.00
2019-02-21T05:52:09.096Z,14.70
2019-02-21T05:53:09.184Z,13.60
2019-02-21T05:54:09.270Z,13.70
2019-02-21T05:55:09.358Z,14.20
2019-02-21T05:56:09.446Z,13.90
2019-02-21T05:57:09.536Z,14.10
2019-02-21T05:58:12.364Z,15.30
2019-02-21T05:59:10.253Z,15.40
2019-02-21T06:00:09.832Z,15.40
2019-02-21T06:01:09.923Z,15.40
2019-02-21T06:02:10.006Z,15.60
2019-02-21T06:03:10.094Z,16.40
2019-02-21T06:04:10.183Z,17.30
2019-02-21T06:05:10.274Z,16.90
2019-02-21T06:06:10.355Z,17.10
2019-02-21T06:07:10.455Z,15.90
2019-02-21T06:08:10.532Z,17.50
2019-02-21T06:09:10.626Z,17.70
2019-02-21T06:10:10.710Z,17.90
2019-02-21T06:11:10.801Z,18.50
2019-02-21T06:12:10.883Z,19.70
2019-02-21T06:13:10.967Z,18.70
2019-02-21T06:14:11.052Z,18.20
2019-02-21T06:15:11.146Z,18.20
2019-02-21T06:16:11.238Z,16.00
2019-02-21T06:17:11.328Z,17.60
2019-02-21T06:18:11.409Z,16.50
2019-02-21T06:19:11.508Z,17.90
2019-02-21T06:20:11.573Z,16.50
2019-02-21T06:21:11.664Z,16.10
2019-02-21T06:22:11.750Z,16.50
2019-02-21T06:23:11.835Z,15.90
2019-02-21T06:24:12.001Z,16.00
2019-02-21T06:25:12.030Z,16.20
2019-02-21T06:26:12.099Z,15.20
2019-02-21T06:27:12.401Z,15.20
2019-02-21T06:28:12.278Z,15.40
2019-02-21T06:29:12.364Z,15.70
2019-02-21T06:30:12.462Z,15.30
2019-02-21T06:31:12.545Z,14.30
2019-02-21T06:32:14.506Z,14.50
2019-02-21T06:33:12.715Z,15.10
2019-02-21T06:34:12.804Z,15.70
2019-02-21T06:35:12.886Z,15.70
2019-02-21T06:36:12.979Z,15.40
2019-02-21T06:37:13.063Z,17.80
2019-02-21T06:38:13.149Z,15.70
2019-02-21T06:39:13.250Z,15.60
2019-02-21T06:40:13.323Z,14.90
2019-02-21T06:41:13.411Z,14.80
2019-02-21T06:42:13.500Z,15.10
2019-02-21T06:43:13.601Z,15.00
2019-02-21T06:44:13.693Z,15.10
2019-02-21T06:45:13.782Z,15.30
2019-02-21T06:46:14.017Z,15.10
2019-02-21T06:47:13.982Z,15.20
2019-02-21T06:48:14.062Z,15.60
2019-02-21T06:49:14.152Z,15.70
2019-02-21T06:50:14.580Z,15.40
2019-02-21T06:51:14.326Z,16.10
2019-02-21T06:52:15.728Z,16.10
2019-02-21T06:53:14.492Z,15.80
2019-02-21T06:54:14.581Z,15.50
2019-02-21T06:55:14.668Z,15.40
2019-02-21T06:56:14.750Z,15.80
2019-02-21T06:57:14.828Z,15.40
2019-02-21T06:58:14.935Z,16.50
2019-02-21T06:59:15.029Z,16.50
2019-02-21T07:00:15.095Z,16.50
2019-02-21T07:01:25.448Z,15.20
2019-02-21T07:02:15.270Z,16.20
2019-02-21T07:03:16.187Z,16.20
2019-02-21T07:04:15.441Z,16.00
2019-02-21T07:05:15.537Z,15.90
2019-02-21T07:06:15.619Z,15.90
2019-02-21T07:07:15.710Z,15.80
2019-02-21T07:08:15.796Z,16.00
2019-02-21T07:09:15.882Z,15.70
2019-02-21T07:10:15.980Z,15.50
2019-02-21T07:11:16.062Z,15.00
2019-02-21T07:12:16.153Z,15.40
2019-02-21T07:13:26.100Z,16.00
2019-02-21T07:14:16.347Z,15.50
2019-02-21T07:15:16.435Z,15.60
2019-02-21T07:16:16.578Z,16.30
2019-02-21T07:17:16.696Z,16.30
2019-02-21T07:18:16.701Z,16.60
2019-02-21T07:19:16.849Z,16.40
2019-02-21T07:20:16.887Z,17.30
2019-02-21T07:21:16.974Z,17.30
2019-02-21T07:22:18.046Z,17.10
2019-02-21T07:23:17.151Z,17.70
2019-02-21T07:24:18.169Z,18.20
2019-02-21T07:25:17.327Z,16.90
2019-02-21T07:26:17.422Z,17.10
2019-02-21T07:27:17.502Z,17.90
2019-02-21T07:28:17.584Z,18.20
2019-02-21T07:29:17.669Z,17.80
2019-02-21T07:30:21.069Z,18.40
2019-02-21T07:31:28.203Z,19.60
2019-02-21T07:32:17.938Z,19.40
2019-02-21T07:33:27.895Z,19.30
2019-02-21T07:34:18.115Z,20.60
2019-02-21T07:35:18.202Z,20.90
2019-02-21T07:36:18.292Z,19.80
2019-02-21T07:37:19.155Z,18.90
2019-02-21T07:38:18.469Z,19.50
2019-02-21T07:39:20.812Z,19.30
2019-02-21T07:40:20.384Z,18.30
2019-02-21T07:41:18.910Z,18.00
2019-02-21T07:42:18.827Z,16.20
2019-02-21T07:43:20.629Z,16.80
2019-02-21T07:44:19.005Z,17.30
2019-02-21T07:45:19.082Z,15.40
2019-02-21T07:46:19.177Z,16.50
2019-02-21T07:47:19.264Z,16.20
2019-02-21T07:48:19.352Z,17.40
2019-02-21T07:49:19.442Z,16.50
2019-02-21T07:50:19.532Z,16.10
2019-02-21T07:51:19.626Z,16.40
2019-02-21T07:52:19.706Z,17.10
2019-02-21T07:53:19.794Z,17.10
2019-02-21T07:54:19.881Z,17.10
2019-02-21T07:55:19.979Z,17.00
2019-02-21T07:56:20.058Z,17.40
2019-02-21T07:57:20.149Z,17.00
2019-02-21T07:58:20.233Z,17.70
2019-02-21T07:59:20.322Z,16.60
2019-02-21T08:00:20.410Z,17.10
2019-02-21T08:01:20.502Z,16.90
2019-02-21T08:02:21.101Z,16.90
2019-02-21T08:03:29.786Z,18.10
2019-02-21T08:04:20.760Z,17.50
2019-02-21T08:05:23.503Z,17.40
2019-02-21T08:06:20.938Z,16.60
2019-02-21T08:07:21.037Z,18.10
2019-02-21T08:08:21.124Z,17.80
2019-02-21T08:09:21.203Z,17.40
2019-02-21T08:10:32.745Z,18.00
2019-02-21T08:11:21.381Z,17.80
2019-02-21T08:12:23.294Z,19.20
2019-02-21T08:13:21.558Z,18.60
2019-02-21T08:14:21.647Z,17.20
2019-02-21T08:15:21.735Z,18.00
2019-02-21T08:16:21.818Z,18.50
2019-02-21T08:17:21.911Z,18.70
2019-02-21T08:18:21.997Z,19.00
2019-02-21T08:19:22.085Z,20.30
2019-02-21T08:20:33.260Z,19.10
2019-02-21T08:21:22.260Z,19.60
2019-02-21T08:22:22.350Z,19.10
2019-02-21T08:23:22.439Z,18.90
2019-02-21T08:24:22.542Z,18.90
2019-02-21T08:25:22.615Z,18.30
2019-02-21T08:26:22.731Z,19.50
2019-02-21T08:27:22.793Z,18.80
2019-02-21T08:28:22.889Z,19.70
2019-02-21T08:29:22.982Z,19.40
2019-02-21T08:30:23.069Z,18.70
2019-02-21T08:31:23.221Z,18.40
2019-02-21T08:32:23.247Z,19.20
2019-02-21T08:33:23.338Z,20.90
2019-02-21T08:34:23.425Z,19.60
2019-02-21T08:35:23.516Z,19.10
2019-02-21T08:36:23.600Z,18.70
2019-02-21T08:37:23.689Z,20.20
2019-02-21T08:38:23.781Z,19.70
2019-02-21T08:39:23.870Z,19.40
2019-02-21T08:40:25.089Z,18.60
2019-02-21T08:41:25.758Z,19.50
2019-02-21T08:42:24.130Z,19.60
2019-02-21T08:43:24.218Z,19.30
2019-02-21T08:44:24.308Z,19.70
2019-02-21T08:45:24.397Z,18.60
2019-02-21T08:46:24.488Z,18.80
2019-02-21T08:47:24.569Z,18.80
2019-02-21T08:48:24.666Z,19.30
2019-02-21T08:49:24.754Z,19.20
2019-02-21T08:50:24.845Z,19.20
2019-02-21T08:51:24.932Z,19.10
2019-02-21T08:52:25.028Z,19.50
2019-02-21T08:53:27.884Z,19.50
2019-02-21T08:54:25.234Z,19.10
2019-02-21T08:55:25.300Z,18.80
2019-02-21T08:56:25.384Z,19.10
2019-02-21T08:57:25.481Z,19.00
2019-02-21T08:58:25.568Z,19.30
2019-02-21T08:59:25.656Z,18.70
2019-02-21T09:00:25.762Z,18.20
2019-02-21T09:01:25.851Z,19.60
2019-02-21T09:02:25.938Z,19.20
2019-02-21T09:03:26.031Z,20.10
2019-02-21T09:04:27.773Z,19.40
2019-02-21T09:05:26.207Z,18.90
2019-02-21T09:06:26.289Z,19.50
2019-02-21T09:07:26.379Z,20.30
2019-02-21T09:08:33.660Z,20.10
2019-02-21T09:09:26.556Z,20.10
2019-02-21T09:10:27.735Z,20.90
2019-02-21T09:11:26.735Z,22.90
2019-02-21T09:12:26.816Z,22.60
2019-02-21T09:13:26.941Z,23.20
2019-02-21T09:14:26.996Z,22.70
2019-02-21T09:15:27.084Z,21.30
2019-02-21T09:16:27.174Z,21.60
2019-02-21T09:17:27.267Z,21.50
2019-02-21T09:18:27.382Z,21.30
2019-02-21T09:19:27.469Z,20.80
2019-02-21T09:20:27.557Z,21.20
2019-02-21T09:21:27.645Z,22.10
2019-02-21T09:22:27.737Z,22.20
2019-02-21T09:23:27.824Z,22.00
2019-02-21T09:24:38.214Z,22.70
2019-02-21T09:25:27.998Z,22.50
2019-02-21T09:26:28.089Z,23.20
2019-02-21T09:27:28.178Z,22.90
2019-02-21T09:28:28.269Z,22.40
2019-02-21T09:29:28.368Z,22.30
2019-02-21T09:30:28.450Z,22.70
2019-02-21T09:31:28.536Z,23.20
2019-02-21T09:32:28.625Z,22.10
2019-02-21T09:33:28.715Z,22.10
2019-02-21T09:34:28.803Z,22.60
2019-02-21T09:35:28.892Z,22.60
2019-02-21T09:36:28.985Z,22.60
2019-02-21T09:37:29.076Z,22.80
2019-02-21T09:38:29.166Z,23.00
2019-02-21T09:39:29.255Z,22.40
2019-02-21T09:40:29.343Z,22.50
2019-02-21T09:41:29.435Z,21.80
2019-02-21T09:42:29.528Z,22.50
2019-02-21T09:43:29.624Z,22.30
2019-02-21T09:44:29.713Z,23.40
2019-02-21T09:45:29.817Z,22.80
2019-02-21T09:46:29.892Z,21.40
2019-02-21T09:47:31.063Z,22.40
2019-02-21T09:48:30.071Z,22.10
2019-02-21T09:49:30.164Z,22.10
2019-02-21T09:50:30.252Z,22.30
2019-02-21T09:51:30.345Z,22.50
2019-02-21T09:52:30.427Z,22.10
2019-02-21T09:53:30.515Z,21.50
2019-02-21T09:54:30.612Z,21.50
2019-02-21T09:55:30.691Z,21.30
2019-02-21T09:56:30.976Z,22.10
2019-02-21T09:57:30.850Z,22.30
2019-02-21T09:58:30.943Z,22.90
2019-02-21T09:59:39.703Z,21.40
2019-02-21T10:00:31.170Z,21.70
2019-02-21T10:01:31.258Z,21.80
2019-02-21T10:02:31.365Z,21.50
2019-02-21T10:03:31.453Z,21.80
2019-02-21T10:04:32.383Z,23.20
2019-02-21T10:05:31.717Z,21.90
2019-02-21T10:06:31.681Z,22.00
2019-02-21T10:07:31.769Z,22.00
2019-02-21T10:08:31.882Z,21.80
2019-02-21T10:09:31.981Z,21.50
2019-02-21T10:10:32.064Z,21.20
2019-02-21T10:11:32.154Z,22.80
2019-02-21T10:12:32.254Z,21.50
2019-02-21T10:13:32.347Z,22.20
2019-02-21T10:14:32.440Z,20.90
2019-02-21T10:15:32.531Z,21.20
2019-02-21T10:16:32.623Z,21.30
2019-02-21T10:17:32.715Z,20.40
2019-02-21T10:18:32.804Z,21.70
2019-02-21T10:19:35.395Z,20.90
2019-02-21T10:20:32.999Z,21.20
2019-02-21T10:21:33.099Z,21.20
2019-02-21T10:22:33.190Z,21.70
2019-02-21T10:23:33.280Z,21.20
2019-02-21T10:24:33.371Z,20.50
2019-02-21T10:25:33.459Z,21.70
2019-02-21T10:26:33.554Z,21.70
2019-02-21T10:27:33.645Z,20.60
2019-02-21T10:28:33.776Z,20.40
2019-02-21T10:29:33.821Z,20.50
2019-02-21T10:30:36.280Z,21.30
2019-02-21T10:31:34.002Z,20.50
2019-02-21T10:32:34.107Z,21.20
2019-02-21T10:33:34.184Z,20.10
2019-02-21T10:34:42.738Z,21.00
2019-02-21T10:35:34.366Z,21.70
2019-02-21T10:36:34.457Z,21.20
2019-02-21T10:37:34.564Z,20.40
2019-02-21T10:38:34.648Z,20.50
2019-02-21T10:39:34.741Z,20.80
2019-02-21T10:40:34.831Z,21.20
2019-02-21T10:41:34.923Z,20.50
2019-02-21T10:42:35.011Z,21.60
2019-02-21T10:43:35.101Z,20.60
2019-02-21T10:44:35.203Z,21.40
2019-02-21T10:45:35.293Z,20.90
2019-02-21T10:46:35.384Z,20.30
2019-02-21T10:47:35.466Z,20.90
2019-02-21T10:48:35.555Z,20.50
2019-02-21T10:49:35.646Z,20.60
2019-02-21T10:50:35.736Z,20.60
2019-02-21T10:51:35.826Z,19.40
2019-02-21T10:52:35.939Z,20.30
2019-02-21T10:53:36.040Z,19.80
2019-02-21T10:54:36.142Z,21.10
2019-02-21T10:55:36.297Z,20.60
2019-02-21T10:56:36.314Z,20.20
2019-02-21T10:57:36.402Z,20.40
2019-02-21T10:58:36.491Z,20.00
2019-02-21T10:59:46.206Z,21.00
2019-02-21T11:00:36.677Z,21.30
2019-02-21T11:01:36.766Z,20.30
2019-02-21T11:02:36.855Z,21.30
2019-02-21T11:03:36.947Z,21.70
2019-02-21T11:04:37.046Z,21.10
2019-02-21T11:05:37.133Z,21.00
2019-02-21T11:06:37.225Z,21.50
2019-02-21T11:07:37.314Z,20.30
2019-02-21T11:08:37.404Z,20.80
2019-02-21T11:09:37.492Z,20.80
2019-02-21T11:10:37.586Z,20.70
2019-02-21T11:11:37.678Z,21.30
2019-02-21T11:12:37.784Z,22.10
2019-02-21T11:13:37.878Z,21.90
2019-02-21T11:14:47.161Z,20.20
2019-02-21T11:15:38.069Z,21.30
2019-02-21T11:16:38.173Z,21.80
2019-02-21T11:17:38.258Z,22.20
2019-02-21T11:18:38.353Z,21.10
2019-02-21T11:19:38.445Z,21.50
2019-02-21T11:20:38.537Z,21.30
2019-02-21T11:21:38.630Z,20.90
2019-02-21T11:22:38.711Z,22.10
2019-02-21T11:23:38.809Z,21.00
2019-02-21T11:24:38.909Z,21.40
2019-02-21T11:25:38.996Z,20.80
2019-02-21T11:26:39.090Z,21.00
2019-02-21T11:27:39.182Z,19.70
2019-02-21T11:28:39.267Z,18.70
2019-02-21T11:29:39.361Z,18.70
2019-02-21T11:30:39.454Z,18.70
2019-02-21T11:31:39.546Z,18.50
2019-02-21T11:32:39.641Z,17.50
2019-02-21T11:33:39.750Z,17.20
2019-02-21T11:34:39.821Z,17.90
2019-02-21T11:35:39.909Z,18.10
2019-02-21T11:36:40.009Z,17.90
2019-02-21T11:37:43.194Z,17.20
2019-02-21T11:38:40.193Z,17.60
2019-02-21T11:39:40.285Z,18.10
2019-02-21T11:40:40.376Z,18.20
2019-02-21T11:41:40.471Z,17.30
2019-02-21T11:42:40.563Z,18.90
2019-02-21T11:43:40.662Z,18.10
2019-02-21T11:44:40.769Z,18.10
2019-02-21T11:45:40.846Z,18.10
2019-02-21T11:46:40.940Z,18.00
2019-02-21T11:47:41.038Z,18.50
2019-02-21T11:48:41.120Z,18.80
2019-02-21T11:49:41.214Z,18.00
2019-02-21T11:50:41.304Z,18.40
2019-02-21T11:51:41.400Z,18.40
2019-02-21T11:52:41.497Z,18.10
2019-02-21T11:53:41.584Z,18.00
2019-02-21T11:54:41.682Z,17.50
2019-02-21T11:55:41.774Z,17.80
2019-02-21T11:56:41.870Z,18.30
2019-02-21T11:57:41.979Z,17.50
2019-02-21T11:58:42.075Z,18.30
2019-02-21T11:59:42.167Z,18.10
2019-02-21T12:00:42.259Z,18.70
2019-02-21T12:01:42.353Z,18.30
2019-02-21T12:02:42.443Z,18.00
2019-02-21T12:03:42.540Z,18.80
2019-02-21T12:04:42.636Z,18.50
2019-02-21T12:05:42.727Z,18.10
2019-02-21T12:06:42.822Z,18.20
2019-02-21T12:07:42.922Z,17.50
2019-02-21T12:08:43.029Z,17.30
2019-02-21T12:09:43.116Z,16.20
2019-02-21T12:10:43.208Z,17.20
2019-02-21T12:11:43.303Z,17.50
2019-02-21T12:12:43.393Z,17.50
2019-02-21T12:13:43.489Z,16.90
2019-02-21T12:14:43.587Z,17.00
2019-02-21T12:15:43.678Z,16.30
2019-02-21T12:16:43.766Z,16.50
2019-02-21T12:17:43.861Z,17.10
2019-02-21T12:18:43.956Z,16.60
2019-02-21T12:19:44.050Z,17.00
2019-02-21T12:20:44.139Z,17.40
2019-02-21T12:21:44.232Z,18.00
2019-02-21T12:22:44.326Z,17.40
2019-02-21T12:23:44.426Z,16.90
2019-02-21T12:24:44.517Z,17.40
2019-02-21T12:25:44.609Z,17.50
2019-02-21T12:26:44.703Z,16.90
2019-02-21T12:27:44.792Z,17.90
2019-02-21T12:28:44.905Z,17.30
2019-02-21T12:29:44.986Z,17.00
2019-02-21T12:30:45.078Z,17.00
2019-02-21T12:31:45.171Z,17.10
2019-02-21T12:32:45.274Z,16.90
2019-02-21T12:33:45.345Z,20.50
2019-02-21T12:34:45.453Z,22.10
2019-02-21T12:35:45.541Z,18.40
2019-02-21T12:36:45.647Z,22.10
2019-02-21T12:37:45.750Z,18.60
2019-02-21T12:38:45.839Z,18.50
2019-02-21T12:39:45.932Z,19.90
2019-02-21T12:40:46.021Z,19.00
2019-02-21T12:41:46.117Z,18.20
2019-02-21T12:42:46.209Z,19.50
2019-02-21T12:43:46.299Z,19.90
2019-02-21T12:44:47.920Z,19.60
2019-02-21T12:45:46.482Z,19.80
2019-02-21T12:46:46.575Z,20.90
2019-02-21T12:47:53.109Z,19.30
2019-02-21T12:48:46.757Z,20.30
2019-02-21T12:49:46.855Z,19.90
2019-02-21T12:50:46.949Z,19.90
2019-02-21T12:51:47.042Z,20.00
2019-02-21T12:52:47.128Z,19.70
2019-02-21T12:53:47.272Z,19.30